Time;durP1;ratioP1;P1;durP2;ratioP2;P2;SDS_P1;SDS_P2;PMS_P1;PMS_P2;Temp;Humidity;BMP_temperature;BMP_pressure;BME280_temperature;BME280_humidity;BME280_pressure;Samples;Min_cycle;Max_cycle;Signal;HPM_P1;HPM_P2
2022/02/13 00:00:20;;;;;;;7.70;1.85;;;2.60;99.90;;;;;;5034518;28;20022;-75
2022/02/13 00:02:45;;;;;;;4.47;1.33;;;2.50;99.90;;;;;;5034701;28;20497;-75
2022/02/13 00:05:12;;;;;;;9.70;1.95;;;2.40;99.90;;;;;;5034015;28;20038;-77
2022/02/13 00:07:37;;;;;;;6.75;1.67;;;2.30;99.90;;;;;;5034329;28;20116;-76
2022/02/13 00:10:09;;;;;;;6.75;2.25;;;2.30;99.90;;;;;;5033490;28;20025;-76
2022/02/13 00:12:36;;;;;;;3.95;1.77;;;2.20;99.90;;;;;;5034645;28;20437;-76
2022/02/13 00:15:02;;;;;;;7.40;2.00;;;2.20;99.90;;;;;;5033272;28;20029;-76
2022/02/13 00:17:27;;;;;;;9.40;2.00;;;2.20;99.90;;;;;;5034620;28;20028;-76
2022/02/13 00:19:53;;;;;;;10.13;1.98;;;2.20;99.90;;;;;;5033050;28;20022;-76
2022/02/13 00:22:18;;;;;;;6.85;2.17;;;2.10;99.90;;;;;;5034531;28;20516;-76
2022/02/13 00:24:45;;;;;;;8.10;2.15;;;2.10;99.90;;;;;;5033099;28;20021;-76
2022/02/13 00:27:11;;;;;;;8.35;1.83;;;2.10;99.90;;;;;;5034348;28;20105;-76
2022/02/13 00:29:37;;;;;;;10.05;1.95;;;2.00;99.90;;;;;;5034317;28;20036;-76
2022/02/13 00:32:04;;;;;;;11.40;2.83;;;2.00;99.90;;;;;;5032992;28;20025;-76
2022/02/13 00:34:29;;;;;;;7.82;1.73;;;2.10;99.90;;;;;;5033743;28;20183;-76
2022/02/13 00:36:55;;;;;;;8.50;2.13;;;2.00;99.90;;;;;;5032913;28;20495;-76
2022/02/13 00:39:20;;;;;;;5.85;2.30;;;2.00;99.90;;;;;;5034142;28;20354;-76
2022/02/13 00:41:46;;;;;;;11.45;3.22;;;2.00;99.90;;;;;;5034493;28;20068;-76
2022/02/13 00:44:11;;;;;;;5.88;1.88;;;2.00;99.90;;;;;;5032994;28;20040;-76
2022/02/13 00:46:37;;;;;;;7.30;1.83;;;2.00;99.90;;;;;;5034403;28;20034;-76
2022/02/13 00:49:03;;;;;;;14.15;2.72;;;1.90;99.90;;;;;;5034040;28;20045;-76
2022/02/13 00:51:28;;;;;;;6.97;1.90;;;2.00;99.90;;;;;;5033953;28;20120;-76
2022/02/13 00:53:54;;;;;;;5.47;1.90;;;1.90;99.90;;;;;;5032845;28;20033;-75
2022/02/13 00:56:20;;;;;;;9.18;2.40;;;1.90;99.90;;;;;;5034428;28;20021;-76
2022/02/13 00:58:46;;;;;;;9.50;1.98;;;2.00;99.90;;;;;;5032669;28;20017;-75
2022/02/13 01:01:13;;;;;;;9.38;1.90;;;2.00;99.90;;;;;;5034363;28;20540;-76
2022/02/13 01:03:39;;;;;;;7.25;2.13;;;2.00;99.90;;;;;;5032845;28;20533;-76
2022/02/13 01:06:05;;;;;;;4.55;1.45;;;2.00;99.90;;;;;;5033983;28;20057;-76
2022/02/13 01:08:31;;;;;;;6.85;1.98;;;2.00;99.90;;;;;;5032883;28;20561;-76
2022/02/13 01:10:57;;;;;;;7.43;2.65;;;2.00;99.90;;;;;;5034169;28;20047;-76
2022/02/13 01:13:23;;;;;;;4.68;2.10;;;1.90;99.90;;;;;;5033978;28;20079;-76
2022/02/13 01:15:49;;;;;;;8.65;1.95;;;2.00;99.90;;;;;;5032707;28;20013;-76
2022/02/13 01:18:14;;;;;;;8.63;2.60;;;2.00;99.90;;;;;;5033815;28;20031;-76
2022/02/13 01:20:40;;;;;;;7.65;2.58;;;2.00;99.90;;;;;;5033895;28;20033;-76
2022/02/13 01:23:06;;;;;;;10.98;1.63;;;2.00;99.90;;;;;;5034334;28;20033;-76
2022/02/13 01:25:32;;;;;;;4.75;1.30;;;2.00;99.90;;;;;;5032691;28;20028;-76
2022/02/13 01:27:59;;;;;;;7.28;1.65;;;2.00;99.90;;;;;;5033487;28;20033;-76
2022/02/13 01:30:25;;;;;;;14.20;2.13;;;2.00;99.90;;;;;;5032614;28;20025;-76
2022/02/13 01:32:51;;;;;;;7.28;1.95;;;2.00;99.90;;;;;;5033374;28;20025;-75
2022/02/13 01:35:17;;;;;;;9.18;1.88;;;2.00;99.90;;;;;;5032451;28;20471;-76
2022/02/13 01:37:42;;;;;;;8.15;2.40;;;2.00;99.90;;;;;;5033634;28;20021;-76
2022/02/13 01:40:08;;;;;;;6.97;1.70;;;2.00;99.90;;;;;;5034136;28;20096;-76
2022/02/13 01:42:34;;;;;;;7.97;1.85;;;2.00;99.90;;;;;;5033358;28;20608;-76
2022/02/13 01:44:59;;;;;;;6.55;1.67;;;2.00;99.90;;;;;;5033594;28;20048;-76
2022/02/13 01:47:29;;;;;;;10.32;2.25;;;2.10;99.90;;;;;;5033516;28;20014;-76
2022/02/13 01:49:57;;;;;;;6.15;1.85;;;2.00;99.90;;;;;;5033308;28;20024;-76
2022/02/13 01:52:23;;;;;;;12.13;2.17;;;2.10;99.90;;;;;;5033167;28;20025;-75
2022/02/13 01:54:49;;;;;;;9.82;2.03;;;2.10;99.90;;;;;;5033300;28;20079;-74
2022/02/13 01:57:14;;;;;;;8.10;1.88;;;2.20;99.90;;;;;;5031912;28;20053;-74
2022/02/13 01:59:40;;;;;;;6.65;1.90;;;2.10;99.90;;;;;;5032588;28;20026;-74
2022/02/13 02:02:06;;;;;;;9.38;1.83;;;2.10;99.90;;;;;;5033098;28;20048;-73
2022/02/13 02:04:31;;;;;;;8.93;1.83;;;2.10;99.90;;;;;;5032852;28;20092;-74
2022/02/13 02:06:57;;;;;;;7.63;2.03;;;2.10;99.90;;;;;;5031976;28;20079;-74
2022/02/13 02:09:26;;;;;;;13.13;2.78;;;2.10;99.90;;;;;;5033046;28;20475;-74
2022/02/13 02:11:52;;;;;;;5.63;1.70;;;2.10;99.90;;;;;;5032884;28;20029;-74
2022/02/13 02:14:17;;;;;;;5.18;1.42;;;2.10;99.90;;;;;;5032025;28;20021;-74
2022/02/13 02:16:44;;;;;;;7.13;1.85;;;2.10;99.90;;;;;;5033271;28;20028;-74
2022/02/13 02:19:10;;;;;;;6.95;1.88;;;2.10;99.90;;;;;;5032944;28;20403;-74
2022/02/13 02:21:46;;;;;;;5.63;1.90;;;2.10;99.90;;;;;;5037084;28;20528;-74
2022/02/13 02:24:13;;;;;;;8.57;1.88;;;2.10;99.90;;;;;;5035408;28;20034;-74
2022/02/13 02:26:42;;;;;;;7.90;1.92;;;2.00;99.90;;;;;;5036738;28;20033;-74
2022/02/13 02:29:07;;;;;;;8.20;1.60;;;2.00;99.90;;;;;;5036623;28;20028;-74
2022/02/13 02:31:33;;;;;;;6.20;1.60;;;2.00;99.90;;;;;;5035017;28;20026;-74
2022/02/13 02:33:59;;;;;;;6.20;1.60;;;2.00;99.90;;;;;;5036385;28;20040;-74
2022/02/13 02:36:25;;;;;;;6.93;2.70;;;2.00;99.90;;;;;;5036688;28;20018;-74
2022/02/13 02:38:50;;;;;;;6.60;1.52;;;2.00;99.90;;;;;;5036681;28;20024;-74
2022/02/13 02:41:16;;;;;;;12.65;2.15;;;1.90;99.90;;;;;;5036760;28;20027;-74
2022/02/13 02:43:42;;;;;;;11.63;2.22;;;1.90;99.90;;;;;;5036343;28;20063;-74
2022/02/13 02:46:11;;;;;;;6.22;1.60;;;1.90;99.90;;;;;;5036431;28;20060;-74
2022/02/13 02:48:37;;;;;;;6.07;2.13;;;1.90;99.90;;;;;;5036380;28;20025;-74
2022/02/13 02:51:04;;;;;;;7.53;1.98;;;1.90;99.90;;;;;;5036248;28;20087;-74
2022/02/13 02:53:30;;;;;;;6.90;1.70;;;1.90;99.90;;;;;;5036328;28;20060;-74
2022/02/13 02:55:56;;;;;;;10.38;2.22;;;1.90;99.90;;;;;;5035109;28;20112;-74
2022/02/13 02:58:22;;;;;;;8.20;2.60;;;1.90;99.90;;;;;;5035883;28;20021;-74
2022/02/13 03:00:50;;;;;;;5.03;1.65;;;1.90;99.90;;;;;;5036686;28;20025;-76
2022/02/13 03:03:19;;;;;;;4.45;1.58;;;1.80;99.90;;;;;;5036259;28;20075;-76
2022/02/13 03:05:45;;;;;;;8.23;1.88;;;1.80;99.90;;;;;;5034928;28;20030;-76
2022/02/13 03:08:11;;;;;;;8.25;1.17;;;1.80;99.90;;;;;;5036549;28;20029;-76
2022/02/13 03:10:36;;;;;;;7.63;2.15;;;1.80;99.90;;;;;;5036498;28;20379;-76
2022/02/13 03:13:02;;;;;;;5.13;1.45;;;1.70;99.90;;;;;;5035938;28;20024;-76
2022/02/13 03:15:28;;;;;;;4.68;1.77;;;1.70;99.90;;;;;;5034858;28;20036;-76
2022/02/13 03:17:54;;;;;;;5.38;2.28;;;1.70;99.90;;;;;;5036209;28;20022;-76
2022/02/13 03:20:20;;;;;;;10.32;2.00;;;1.80;99.90;;;;;;5036355;28;20433;-76
2022/02/13 03:22:45;;;;;;;9.05;2.30;;;1.80;99.90;;;;;;5035891;28;20064;-75
2022/02/13 03:25:11;;;;;;;3.80;1.25;;;1.80;99.90;;;;;;5034602;28;20079;-75
2022/02/13 03:27:36;;;;;;;6.72;2.13;;;1.70;99.90;;;;;;5035860;28;20414;-76
2022/02/13 03:30:03;;;;;;;5.82;1.73;;;1.80;99.90;;;;;;5033599;28;20030;-76
2022/02/13 03:32:29;;;;;;;6.30;1.52;;;1.70;99.90;;;;;;5035600;28;20509;-76
2022/02/13 03:34:55;;;;;;;4.28;1.35;;;1.60;99.90;;;;;;5034416;28;20025;-76
2022/02/13 03:37:21;;;;;;;5.95;2.00;;;1.60;99.90;;;;;;5034507;28;20387;-76
2022/02/13 03:39:46;;;;;;;5.63;1.77;;;1.60;99.90;;;;;;5034407;28;20026;-76
2022/02/13 03:42:12;;;;;;;4.88;1.52;;;1.60;99.90;;;;;;5035271;28;20041;-75
2022/02/13 03:44:38;;;;;;;10.88;2.10;;;1.50;99.90;;;;;;5034135;28;20037;-75
2022/02/13 03:47:04;;;;;;;6.75;2.15;;;1.50;99.90;;;;;;5034067;28;20163;-75
2022/02/13 03:49:30;;;;;;;7.50;1.42;;;1.50;99.90;;;;;;5035472;28;20033;-76
2022/02/13 03:51:56;;;;;;;4.90;1.75;;;1.50;99.90;;;;;;5035456;28;20025;-76
2022/02/13 03:54:22;;;;;;;5.70;1.83;;;1.50;99.90;;;;;;5033883;28;20025;-75
2022/02/13 03:56:47;;;;;;;6.30;1.55;;;1.40;99.90;;;;;;5035176;28;20025;-75
2022/02/13 03:59:13;;;;;;;7.47;2.00;;;1.30;99.90;;;;;;5034893;28;20014;-76
2022/02/13 04:01:39;;;;;;;7.80;1.60;;;1.30;99.90;;;;;;5035081;28;20029;-75
2022/02/13 04:04:05;;;;;;;6.00;2.10;;;1.30;99.90;;;;;;5035248;28;20029;-75
2022/02/13 04:06:30;;;;;;;6.70;1.75;;;1.30;99.90;;;;;;5035076;28;20044;-75
2022/02/13 04:08:56;;;;;;;6.38;1.70;;;1.30;99.90;;;;;;5033754;28;20027;-75
2022/02/13 04:11:21;;;;;;;5.03;1.40;;;1.30;99.90;;;;;;5035201;28;20398;-75
2022/02/13 04:13:47;;;;;;;3.05;1.00;;;1.40;99.90;;;;;;5034028;28;20025;-75
2022/02/13 04:16:12;;;;;;;7.65;1.75;;;1.40;99.90;;;;;;5035042;28;20029;-75
2022/02/13 04:18:38;;;;;;;8.85;1.70;;;1.40;99.90;;;;;;5034833;28;20475;-75
2022/02/13 04:21:04;;;;;;;7.38;1.73;;;1.40;99.90;;;;;;5035346;28;20037;-76
2022/02/13 04:23:32;;;;;;;5.25;1.45;;;1.40;99.90;;;;;;5035264;28;20026;-76
2022/02/13 04:25:59;;;;;;;3.95;1.25;;;1.40;99.90;;;;;;5034771;28;20021;-76
2022/02/13 04:28:25;;;;;;;6.45;2.08;;;1.30;99.90;;;;;;5035177;28;20030;-75
2022/02/13 04:30:50;;;;;;;7.70;1.65;;;1.30;99.90;;;;;;5033299;28;20512;-75
2022/02/13 04:33:16;;;;;;;5.35;1.67;;;1.30;99.90;;;;;;5034015;28;20513;-76
2022/02/13 04:35:42;;;;;;;7.85;1.90;;;1.20;99.90;;;;;;5034829;28;20356;-76
2022/02/13 04:38:07;;;;;;;9.27;1.90;;;1.20;99.90;;;;;;5034502;28;20013;-76
2022/02/13 04:40:33;;;;;;;10.90;2.45;;;1.20;99.90;;;;;;5035039;28;20040;-76
2022/02/13 04:42:59;;;;;;;5.32;1.45;;;1.30;99.90;;;;;;5035615;28;20087;-76
2022/02/13 04:45:25;;;;;;;5.43;1.55;;;1.30;99.90;;;;;;5033310;28;20486;-76
2022/02/13 04:47:50;;;;;;;5.25;1.40;;;1.30;99.90;;;;;;5034770;28;20108;-75
2022/02/13 04:50:21;;;;;;;6.88;1.80;;;1.30;99.90;;;;;;5034659;28;20048;-75
2022/02/13 04:52:47;;;;;;;5.15;1.33;;;1.20;99.90;;;;;;5034661;28;20041;-75
2022/02/13 04:55:13;;;;;;;5.13;1.42;;;1.20;99.90;;;;;;5034498;28;20034;-76
2022/02/13 04:57:39;;;;;;;4.47;1.20;;;1.20;99.90;;;;;;5033156;28;20049;-76
2022/02/13 05:00:05;;;;;;;6.78;2.17;;;1.20;99.90;;;;;;5034880;28;20098;-76
2022/02/13 05:02:31;;;;;;;5.63;1.48;;;1.20;99.90;;;;;;5034255;28;20395;-76
2022/02/13 05:04:57;;;;;;;6.35;2.00;;;1.20;99.90;;;;;;5034480;28;20025;-76
2022/02/13 05:07:22;;;;;;;5.60;1.80;;;1.20;99.90;;;;;;5034251;28;20100;-75
2022/02/13 05:09:48;;;;;;;7.45;2.22;;;1.20;99.90;;;;;;5034502;28;20071;-75
2022/02/13 05:12:13;;;;;;;5.78;1.60;;;1.20;99.90;;;;;;5034190;28;20104;-76
2022/02/13 05:14:40;;;;;;;7.13;1.80;;;1.20;99.90;;;;;;5032830;28;20021;-75
2022/02/13 05:17:06;;;;;;;3.92;1.65;;;1.20;99.90;;;;;;5033883;28;20021;-76
2022/02/13 05:19:31;;;;;;;4.20;1.02;;;1.30;99.90;;;;;;5033753;28;20025;-75
2022/02/13 05:21:57;;;;;;;10.20;2.10;;;1.20;99.90;;;;;;5032318;28;20025;-75
2022/02/13 05:24:23;;;;;;;5.90;1.70;;;1.20;99.90;;;;;;5033581;28;20386;-75
2022/02/13 05:26:49;;;;;;;7.25;1.60;;;1.20;99.90;;;;;;5033834;28;20498;-76
2022/02/13 05:29:15;;;;;;;8.57;1.90;;;1.20;99.90;;;;;;5033965;28;20022;-76
2022/02/13 05:31:41;;;;;;;10.15;2.05;;;1.20;99.90;;;;;;5033564;28;20029;-76
2022/02/13 05:34:06;;;;;;;5.00;1.33;;;1.30;99.90;;;;;;5031763;28;20034;-77
2022/02/13 05:36:32;;;;;;;6.75;1.42;;;1.30;99.90;;;;;;5032263;28;20131;-76
2022/02/13 05:38:58;;;;;;;4.18;1.02;;;1.30;99.90;;;;;;5033430;28;20475;-76
2022/02/13 05:41:23;;;;;;;5.68;1.60;;;1.30;99.90;;;;;;5031902;28;20036;-77
2022/02/13 05:43:50;;;;;;;7.05;1.75;;;1.30;99.90;;;;;;5032982;28;20044;-76
2022/02/13 05:46:15;;;;;;;5.13;1.75;;;1.30;99.90;;;;;;5033031;28;20026;-76
2022/02/13 05:48:41;;;;;;;11.20;1.95;;;1.40;99.90;;;;;;5033547;28;20033;-76
2022/02/13 05:51:10;;;;;;;4.90;1.42;;;1.30;99.90;;;;;;5033489;28;20041;-76
2022/02/13 05:53:36;;;;;;;3.10;1.20;;;1.30;99.90;;;;;;5034773;28;20387;-76
2022/02/13 05:56:01;;;;;;;7.72;1.85;;;1.30;99.90;;;;;;5037371;28;20020;-76
2022/02/13 05:58:27;;;;;;;6.53;1.40;;;1.40;99.90;;;;;;5036423;28;20032;-76
2022/02/13 06:00:52;;;;;;;5.75;1.50;;;1.40;99.90;;;;;;5037607;28;20026;-75
2022/02/13 06:03:18;;;;;;;7.47;1.85;;;1.40;99.90;;;;;;5037598;28;20025;-75
2022/02/13 06:05:43;;;;;;;7.72;1.45;;;1.40;99.90;;;;;;5035847;28;20028;-75
2022/02/13 06:08:09;;;;;;;9.95;2.15;;;1.40;99.90;;;;;;5037945;28;20068;-74
2022/02/13 06:10:35;;;;;;;5.53;1.85;;;1.40;99.90;;;;;;5037454;28;20478;-76
2022/02/13 06:13:01;;;;;;;8.50;1.88;;;1.40;99.90;;;;;;5035992;28;20135;-75
2022/02/13 06:15:26;;;;;;;5.57;1.83;;;1.40;99.90;;;;;;5036045;28;20033;-75
2022/02/13 06:17:52;;;;;;;6.82;2.17;;;1.40;99.90;;;;;;5037062;28;20395;-75
2022/02/13 06:20:17;;;;;;;5.85;1.42;;;1.50;99.90;;;;;;5037496;28;20057;-75
2022/02/13 06:22:43;;;;;;;5.65;1.42;;;1.40;99.90;;;;;;5035874;28;20040;-75
2022/02/13 06:25:09;;;;;;;6.10;1.63;;;1.50;99.90;;;;;;5035253;28;20018;-75
2022/02/13 06:27:34;;;;;;;10.15;2.38;;;1.50;99.90;;;;;;5036966;28;20032;-75
2022/02/13 06:30:00;;;;;;;6.60;1.27;;;1.50;99.90;;;;;;5035796;28;20376;-75
2022/02/13 06:32:26;;;;;;;6.53;1.45;;;1.50;99.90;;;;;;5037153;28;20033;-75
2022/02/13 06:34:51;;;;;;;10.75;1.55;;;1.50;99.90;;;;;;5035891;28;20033;-75
2022/02/13 06:37:17;;;;;;;6.85;1.67;;;1.60;99.90;;;;;;5036643;28;20017;-75
2022/02/13 06:39:42;;;;;;;9.18;1.60;;;1.50;99.90;;;;;;5036665;28;20481;-75
2022/02/13 06:42:08;;;;;;;4.05;1.90;;;1.60;99.90;;;;;;5035823;28;20120;-75
2022/02/13 06:44:33;;;;;;;16.45;2.55;;;1.60;99.90;;;;;;5036614;28;20057;-75
2022/02/13 06:46:59;;;;;;;4.45;1.25;;;1.60;99.90;;;;;;5036962;28;20041;-75
2022/02/13 06:49:24;;;;;;;7.32;1.58;;;1.60;99.90;;;;;;5035083;28;20393;-75
2022/02/13 06:51:50;;;;;;;6.18;1.38;;;1.60;99.90;;;;;;5034916;28;20030;-75
2022/02/13 06:54:15;;;;;;;6.95;1.75;;;1.50;99.90;;;;;;5036420;28;20375;-75
2022/02/13 06:56:41;;;;;;;4.75;1.52;;;1.50;99.90;;;;;;5034898;28;20112;-75
2022/02/13 06:59:07;;;;;;;4.60;1.30;;;1.50;99.90;;;;;;5036222;28;20022;-75
2022/02/13 07:01:32;;;;;;;6.00;2.28;;;1.50;99.90;;;;;;5036146;28;20116;-75
2022/02/13 07:03:58;;;;;;;8.20;1.40;;;1.50;99.90;;;;;;5036208;28;20386;-75
2022/02/13 07:06:24;;;;;;;7.65;2.00;;;1.60;99.90;;;;;;5034449;28;20482;-75
2022/02/13 07:08:50;;;;;;;4.22;1.27;;;1.60;99.90;;;;;;5034546;28;20022;-74
2022/02/13 07:11:16;;;;;;;6.78;1.70;;;1.60;99.90;;;;;;5034750;28;20035;-74
2022/02/13 07:13:42;;;;;;;5.22;1.25;;;1.70;99.90;;;;;;5035957;28;20096;-74
2022/02/13 07:16:07;;;;;;;8.27;1.45;;;1.70;99.90;;;;;;5034577;28;20085;-74
2022/02/13 07:18:33;;;;;;;8.00;1.85;;;1.70;99.90;;;;;;5035769;28;20096;-74
2022/02/13 07:20:58;;;;;;;5.03;1.70;;;1.80;99.90;;;;;;5035954;28;20027;-75
2022/02/13 07:23:25;;;;;;;4.57;1.65;;;1.80;99.90;;;;;;5035262;28;20026;-75
2022/02/13 07:25:52;;;;;;;5.00;0.90;;;1.90;99.90;;;;;;5034206;28;20033;-75
2022/02/13 07:31:02;;;;;;;5.30;1.65;;;2.00;99.90;;;;;;5036078;28;20501;-75
2022/02/13 07:33:27;;;;;;;8.00;1.67;;;2.00;99.90;;;;;;5035196;28;20025;-75
2022/02/13 07:35:53;;;;;;;6.32;1.73;;;2.00;99.90;;;;;;5033288;28;20117;-75
2022/02/13 07:38:18;;;;;;;5.03;1.92;;;2.10;99.90;;;;;;5035610;28;20032;-75
2022/02/13 07:40:44;;;;;;;3.78;1.55;;;2.20;99.90;;;;;;5035352;28;20029;-75
2022/02/13 07:43:11;;;;;;;5.68;0.98;;;2.20;99.90;;;;;;5033996;28;20096;-75
2022/02/13 07:45:37;;;;;;;5.15;1.38;;;2.30;99.90;;;;;;5033721;28;20052;-75
2022/02/13 07:48:02;;;;;;;5.30;1.35;;;2.30;99.90;;;;;;5035364;28;20021;-75
2022/02/13 07:50:28;;;;;;;3.90;1.50;;;2.30;99.90;;;;;;5035424;28;20026;-75
2022/02/13 07:52:54;;;;;;;3.80;1.02;;;2.30;99.90;;;;;;5035376;28;20026;-75
2022/02/13 07:55:19;;;;;;;7.32;1.63;;;2.40;99.90;;;;;;5033936;28;20025;-76
2022/02/13 07:57:45;;;;;;;3.58;1.20;;;2.40;99.90;;;;;;5035206;28;20013;-76
2022/02/13 08:00:11;;;;;;;7.57;1.48;;;2.40;99.90;;;;;;5033957;28;20048;-76
2022/02/13 08:02:38;;;;;;;13.27;2.17;;;2.40;99.90;;;;;;5032586;28;20567;-75
2022/02/13 08:05:04;;;;;;;5.93;1.65;;;2.50;99.90;;;;;;5033332;28;20539;-76
2022/02/13 08:07:30;;;;;;;4.40;1.45;;;2.60;99.90;;;;;;5033522;28;20030;-76
2022/02/13 08:09:55;;;;;;;5.28;1.55;;;2.60;99.90;;;;;;5034902;28;20390;-76
2022/02/13 08:12:21;;;;;;;6.75;1.67;;;2.70;99.90;;;;;;5034697;28;20505;-76
2022/02/13 08:14:46;;;;;;;3.28;1.35;;;2.80;99.90;;;;;;5034586;28;20024;-76
2022/02/13 08:17:12;;;;;;;7.13;2.00;;;2.80;99.90;;;;;;5032600;28;20029;-76
2022/02/13 08:19:38;;;;;;;5.95;1.88;;;2.80;99.90;;;;;;5035136;28;20064;-76
2022/02/13 08:22:05;;;;;;;6.65;1.60;;;2.90;99.90;;;;;;5033260;28;20482;-77
2022/02/13 08:24:31;;;;;;;2.75;1.08;;;2.90;99.90;;;;;;5034670;28;20505;-76
2022/02/13 08:26:56;;;;;;;8.05;1.23;;;3.00;99.90;;;;;;5034289;28;20470;-75
2022/02/13 08:29:22;;;;;;;4.25;1.58;;;3.00;99.90;;;;;;5034419;28;20037;-75
2022/02/13 08:31:48;;;;;;;7.57;1.58;;;3.10;99.90;;;;;;5034258;28;20535;-75
2022/02/13 08:34:13;;;;;;;4.63;1.63;;;3.20;99.90;;;;;;5032465;28;20026;-75
2022/02/13 08:36:39;;;;;;;7.13;1.15;;;3.20;99.90;;;;;;5033826;28;20143;-76
2022/02/13 08:39:05;;;;;;;6.35;1.48;;;3.30;99.90;;;;;;5034151;28;20079;-76
2022/02/13 08:41:31;;;;;;;3.95;1.30;;;3.30;99.90;;;;;;5033830;28;20079;-76
2022/02/13 08:43:56;;;;;;;5.85;1.55;;;3.40;99.90;;;;;;5031033;28;20406;-76
2022/02/13 08:46:23;;;;;;;3.33;0.98;;;3.40;99.90;;;;;;5034167;28;20040;-76
2022/02/13 08:48:49;;;;;;;6.38;1.73;;;3.50;99.90;;;;;;5033109;28;20109;-76
2022/02/13 08:51:14;;;;;;;5.55;1.88;;;3.50;99.90;;;;;;5033500;28;20128;-76
2022/02/13 08:53:40;;;;;;;5.32;1.75;;;3.50;99.90;;;;;;5033687;28;20051;-76
2022/02/13 08:56:07;;;;;;;4.22;1.60;;;3.60;99.90;;;;;;5033307;28;20021;-76
2022/02/13 08:58:33;;;;;;;7.88;1.48;;;3.60;99.90;;;;;;5033551;28;20026;-76
2022/02/13 09:00:59;;;;;;;5.13;1.63;;;3.60;99.90;;;;;;5033766;28;20068;-76
2022/02/13 09:03:25;;;;;;;8.95;1.75;;;3.70;99.90;;;;;;5032193;28;20475;-76
2022/02/13 09:05:50;;;;;;;9.25;1.67;;;3.70;99.90;;;;;;5032694;28;20036;-76
2022/02/13 09:08:16;;;;;;;4.95;1.63;;;3.80;99.90;;;;;;5032423;28;20029;-76
2022/02/13 09:10:41;;;;;;;6.40;1.17;;;3.80;99.90;;;;;;5033217;28;20025;-76
2022/02/13 09:13:08;;;;;;;5.95;2.13;;;3.80;99.90;;;;;;5033718;28;20021;-75
2022/02/13 09:15:37;;;;;;;7.18;1.42;;;3.80;99.90;;;;;;5033897;28;20100;-75
2022/02/13 09:18:02;;;;;;;;;;;3.90;99.90;;;;;;5033859;28;20026;-76
2022/02/13 09:20:28;;;;;;;6.05;1.50;;;3.90;99.90;;;;;;5027641;28;19979;-75
2022/02/13 09:22:54;;;;;;;3.05;1.25;;;4.00;99.90;;;;;;5032098;28;20022;-75
2022/02/13 09:25:19;;;;;;;5.38;1.60;;;4.00;99.90;;;;;;5033891;28;20029;-75
2022/02/13 09:27:45;;;;;;;4.60;1.50;;;4.10;99.90;;;;;;5033414;28;20022;-75
2022/02/13 09:30:10;;;;;;;5.57;1.80;;;4.20;99.90;;;;;;5033564;28;20067;-76
2022/02/13 09:32:38;;;;;;;5.40;2.10;;;4.20;99.90;;;;;;5033521;28;20029;-76
2022/02/13 09:35:05;;;;;;;4.00;0.88;;;4.30;99.90;;;;;;5031588;28;20533;-75
2022/02/13 09:37:30;;;;;;;3.60;1.10;;;4.40;99.90;;;;;;5031937;28;20025;-75
2022/02/13 09:39:56;;;;;;;3.70;1.40;;;4.40;99.90;;;;;;5032127;28;20024;-75
2022/02/13 09:42:22;;;;;;;4.97;1.50;;;4.40;99.90;;;;;;5033894;28;20037;-76
2022/02/13 09:44:47;;;;;;;4.35;1.08;;;4.50;99.90;;;;;;5032083;28;20116;-76
2022/02/13 09:47:15;;;;;;;6.30;1.45;;;4.60;99.90;;;;;;5033510;28;20033;-76
2022/02/13 09:49:40;;;;;;;6.25;1.83;;;4.80;99.90;;;;;;5031167;28;20418;-76
2022/02/13 09:52:08;;;;;;;5.13;1.17;;;5.00;99.90;;;;;;5033054;28;20025;-76
2022/02/13 09:54:36;;;;;;;2.65;0.85;;;5.10;99.90;;;;;;5033813;28;20067;-76
2022/02/13 09:59:58;;;;;;;5.38;1.88;;;5.40;99.90;;;;;;5033840;28;20033;-76
2022/02/13 10:02:34;;;;;;;8.05;1.73;;;5.40;99.90;;;;;;5033948;28;20107;-75
2022/02/13 10:05:00;;;;;;;4.38;2.00;;;5.40;99.90;;;;;;5032934;28;20018;-76
2022/02/13 10:07:26;;;;;;;4.80;2.00;;;5.40;99.90;;;;;;5033086;28;20029;-76
2022/02/13 10:09:59;;;;;;;5.63;1.42;;;5.40;99.90;;;;;;5032328;28;20021;-76
2022/02/13 10:12:30;;;;;;;8.13;1.88;;;5.50;99.90;;;;;;5033210;28;20112;-76
2022/02/13 10:14:55;;;;;;;5.25;1.65;;;5.50;99.90;;;;;;5031602;28;20038;-76
2022/02/13 10:17:21;;;;;;;3.40;1.40;;;5.70;99.90;;;;;;5033235;28;20021;-76
2022/02/13 10:19:53;;;;;;;4.97;1.55;;;5.70;99.90;;;;;;5033222;28;20113;-76
2022/02/13 10:22:34;;;;;;;4.28;1.50;;;5.70;99.90;;;;;;5033480;28;20072;-76
2022/02/13 10:25:14;;;;;;;5.15;1.27;;;5.70;99.90;;;;;;5033145;28;20034;-75
2022/02/13 10:27:47;;;;;;;5.50;1.73;;;5.80;99.90;;;;;;5033120;28;20021;-76
2022/02/13 10:30:32;;;;;;;4.32;1.27;;;5.80;99.90;;;;;;5033073;28;20037;-76
2022/02/13 10:33:13;;;;;;;4.93;1.27;;;5.90;99.90;;;;;;5031649;28;20076;-76
2022/02/13 10:35:39;;;;;;;3.53;1.60;;;6.00;99.90;;;;;;5032437;28;20040;-77
2022/02/13 10:38:04;;;;;;;4.88;1.33;;;6.00;99.90;;;;;;5032991;28;20029;-75
2022/02/13 10:40:31;;;;;;;3.40;1.55;;;6.00;99.90;;;;;;5035627;28;20033;-75
2022/02/13 10:43:07;;;;;;;5.15;1.35;;;6.00;99.90;;;;;;5036809;28;20018;-75
2022/02/13 10:45:38;;;;;;;3.30;1.23;;;6.10;99.90;;;;;;5036460;28;20406;-75
2022/02/13 10:48:06;;;;;;;5.65;1.60;;;6.20;99.90;;;;;;5036638;28;20032;-75
2022/02/13 10:50:35;;;;;;;4.25;1.30;;;6.30;99.90;;;;;;5034378;28;20375;-76
2022/02/13 10:53:02;;;;;;;4.13;1.30;;;6.30;99.90;;;;;;5036603;28;20474;-75
2022/02/13 10:55:29;;;;;;;4.45;1.83;;;6.50;99.90;;;;;;5036237;28;20147;-75
2022/02/13 10:57:56;;;;;;;3.33;1.33;;;6.40;99.90;;;;;;5036530;28;20029;-75
2022/02/13 11:00:22;;;;;;;5.88;2.08;;;6.50;99.90;;;;;;5035368;28;20049;-75
2022/02/13 11:02:49;;;;;;;4.35;1.48;;;6.50;99.90;;;;;;5036121;28;20034;-75
2022/02/13 11:05:15;;;;;;;3.72;1.30;;;6.60;99.90;;;;;;5036119;28;20029;-74
2022/02/13 11:07:44;;;;;;;4.07;1.35;;;6.70;99.90;;;;;;5034722;28;20064;-75
2022/02/13 11:10:15;;;;;;;5.53;2.30;;;6.70;99.90;;;;;;5034753;28;20025;-75
2022/02/13 11:12:43;;;;;;;3.45;1.13;;;6.90;99.90;;;;;;5035826;28;20491;-75
2022/02/13 11:15:20;;;;;;;4.07;1.45;;;7.00;99.90;;;;;;5036001;28;20088;-75
2022/02/13 11:17:48;;;;;;;4.28;1.45;;;7.00;99.90;;;;;;5035980;28;20416;-76
2022/02/13 11:20:16;;;;;;;4.50;1.50;;;7.00;99.90;;;;;;5034701;28;20044;-75
2022/02/13 11:22:53;;;;;;;5.13;1.15;;;7.20;99.90;;;;;;5035412;28;20283;-75
2022/02/13 11:25:52;;;;;;;3.65;1.00;;;7.20;98.90;;;;;;5035475;28;20387;-75
2022/02/13 11:28:25;;;;;;;4.53;1.27;;;7.30;98.80;;;;;;5035781;28;20032;-75
2022/02/13 11:30:52;;;;;;;4.38;1.73;;;7.30;98.30;;;;;;5036002;28;20075;-75
2022/02/13 11:33:24;;;;;;;3.60;1.50;;;7.30;96.90;;;;;;5033942;28;20036;-75
2022/02/13 11:36:10;;;;;;;4.82;1.10;;;7.40;98.80;;;;;;5035162;28;20029;-74
2022/02/13 11:38:46;;;;;;;2.80;0.82;;;7.60;98.00;;;;;;5035372;28;20103;-75
2022/02/13 11:41:14;;;;;;;5.93;1.25;;;7.70;96.40;;;;;;5035631;28;20017;-75
2022/02/13 11:43:48;;;;;;;4.18;1.65;;;7.70;95.50;;;;;;5034255;28;20028;-76
2022/02/13 11:46:36;;;;;;;3.47;1.00;;;7.80;97.70;;;;;;5033959;28;20053;-75
2022/02/13 11:49:04;;;;;;;3.38;1.27;;;7.90;96.90;;;;;;5030427;28;20037;-75
2022/02/13 11:51:48;;;;;;;6.00;1.70;;;7.90;96.90;;;;;;5033262;28;20022;-76
2022/02/13 11:54:38;;;;;;;3.90;1.45;;;8.10;97.70;;;;;;5035279;28;20064;-75
2022/02/13 11:57:05;;;;;;;3.75;1.00;;;8.10;95.10;;;;;;5035100;28;20052;-75
2022/02/13 11:59:47;;;;;;;5.72;1.10;;;8.20;95.90;;;;;;5034650;28;20026;-76
2022/02/13 12:02:15;;;;;;;5.47;1.33;;;8.30;96.50;;;;;;5034625;28;20536;-75
2022/02/13 12:05:05;;;;;;;2.50;1.02;;;8.40;97.80;;;;;;5033607;28;20059;-75
2022/02/13 12:07:37;;;;;;;3.70;0.98;;;8.40;96.50;;;;;;5034573;28;20061;-75
2022/02/13 12:10:04;;;;;;;3.53;1.17;;;8.50;96.70;;;;;;5034897;28;20034;-75
2022/02/13 12:12:31;;;;;;;2.50;0.85;;;8.40;96.30;;;;;;5034803;28;20028;-75
2022/02/13 12:14:56;;;;;;;4.60;1.40;;;8.40;97.50;;;;;;5033885;28;20017;-75
2022/02/13 12:17:29;;;;;;;4.13;0.98;;;8.40;98.50;;;;;;5034914;28;20032;-75
2022/02/13 12:20:09;;;;;;;1.60;0.77;;;8.50;98.40;;;;;;5035061;28;20474;-75
2022/02/13 12:22:35;;;;;;;3.60;0.77;;;8.50;99.90;;;;;;5033847;28;20029;-76
2022/02/13 12:25:03;;;;;;;3.25;0.98;;;8.60;99.80;;;;;;5033180;28;20375;-76
2022/02/13 12:27:31;;;;;;;4.80;1.00;;;8.70;99.90;;;;;;5034174;28;20072;-75
2022/02/13 12:29:59;;;;;;;3.38;1.10;;;8.80;99.90;;;;;;5032924;28;20275;-75
2022/02/13 12:32:33;;;;;;;3.72;1.30;;;9.00;99.90;;;;;;5034579;28;20021;-75
2022/02/13 12:35:08;;;;;;;3.35;1.20;;;9.10;99.20;;;;;;5035359;28;20106;-75
2022/02/13 12:37:38;;;;;;;4.25;1.20;;;9.10;99.90;;;;;;5033312;28;20463;-75
2022/02/13 12:40:05;;;;;;;3.17;1.33;;;9.20;99.40;;;;;;5034699;28;20022;-75
2022/02/13 12:42:34;;;;;;;4.65;0.93;;;9.30;99.80;;;;;;5033100;28;20372;-76
2022/02/13 12:45:04;;;;;;;5.28;1.80;;;9.30;99.90;;;;;;5034741;28;20021;-75
2022/02/13 12:47:34;;;;;;;3.80;1.00;;;9.20;99.90;;;;;;5033055;28;20029;-75
2022/02/13 12:50:02;;;;;;;3.05;1.02;;;9.00;99.90;;;;;;5033810;28;20063;-75
2022/02/13 12:52:30;;;;;;;5.78;1.60;;;8.90;99.90;;;;;;5033916;28;20022;-75
2022/02/13 12:54:56;;;;;;;4.05;1.95;;;8.90;99.90;;;;;;5034679;28;20103;-75
2022/02/13 12:57:22;;;;;;;8.10;1.73;;;9.00;99.90;;;;;;5033939;28;20021;-76
2022/02/13 12:59:48;;;;;;;4.18;1.55;;;9.10;99.90;;;;;;5033233;28;20075;-75
2022/02/13 13:02:22;;;;;;;2.97;1.67;;;9.10;99.90;;;;;;5032400;28;20030;-75